M I D A S
Marine Information and Data Acquisition System
Tripno 322 of the Zeeleeuw from 2002-03-20 09:00:00 to 2002-03-20 13:32:00
Back to CruiseResearch ActivitiesStationsMapUnderway DataData graphs

EquipmentUnitsComments
TimeDGPSUTC
LatitudeDGPSDM.mWGS84
LongitudeDGPSDM.mWGS84
SpeedMeteo Stationm/sRelative wind speed
DirectionMeteo StationdegRelative wind direction
TemperatureMeteo Stationdeg CelciusAir temperature
PressureMeteo StationPaAtmospheric pressure
HumidityMeteo Station%Relative humidity
Missing or incorrect values are displayed as -999
Metereological data collected by the RV Zeeleeuw from 2002-03-20 09:00:00 to 2002-03-20 13:32:00
                                                                                    Next 1000 lines
Time Latitude Longitude Speed Direction Temperature Pressure Humidity
2002-03-20 09:00:07 51°13.597 2°56.098 4.6 88 10.8 101260 87
2002-03-20 09:00:12 51°13.597 2°56.098 3.6 101 10.8 101260 87
2002-03-20 09:00:17 51°13.597 2°56.098 4.6 65 10.8 101260 87
2002-03-20 09:00:22 51°13.597 2°56.098 5.1 94 10.8 101260 87
2002-03-20 09:00:27 51°13.597 2°56.098 5.3 85 10.8 101270 87
2002-03-20 09:00:32 51°13.597 2°56.098 7.6 79 10.8 101270 87
2002-03-20 09:00:37 51°13.597 2°56.098 5.3 105 10.8 101260 87
2002-03-20 09:00:43 51°13.597 2°56.098 9.4 94 10.8 101260 87
2002-03-20 09:00:47 51°13.597 2°56.098 7.5 93 10.8 101260 87
2002-03-20 09:00:53 51°13.597 2°56.098 8.2 87 10.8 101260 87
2002-03-20 09:00:57 51°13.597 2°56.098 9.6 89 10.8 101260 87
2002-03-20 09:01:02 51°13.597 2°56.098 7 74 10.8 101260 87
2002-03-20 09:01:07 51°13.597 2°56.098 6.8 83 10.8 101260 87
2002-03-20 09:01:12 51°13.597 2°56.098 6.9 111 10.8 101260 87
2002-03-20 09:01:17 51°13.596 2°56.098 6.9 86 10.8 101260 87
2002-03-20 09:01:22 51°13.596 2°56.097 5.8 96 10.8 101260 87
2002-03-20 09:01:27 51°13.596 2°56.097 5.3 99 10.7 101260 87
2002-03-20 09:01:33 51°13.596 2°56.097 5.1 103 10.7 101260 87
2002-03-20 09:01:37 51°13.596 2°56.097 6 100 10.7 101270 87
2002-03-20 09:01:42 51°13.596 2°56.097 5.2 50 10.7 101270 87
2002-03-20 09:01:47 51°13.596 2°56.097 7.4 72 10.7 101260 87
2002-03-20 09:01:53 51°13.596 2°56.098 6.4 87 10.7 101260 87
2002-03-20 09:01:58 51°13.597 2°56.098 5.3 73 10.7 101260 87
2002-03-20 09:02:03 51°13.596 2°56.098 5.6 84 10.7 101260 87
2002-03-20 09:02:08 51°13.596 2°56.098 5.7 83 10.7 101260 87
2002-03-20 09:02:13 51°13.596 2°56.098 6.4 89 10.7 101260 87
2002-03-20 09:02:18 51°13.597 2°56.098 6.2 98 10.7 101260 87
2002-03-20 09:02:23 51°13.597 2°56.097 3.4 81 10.7 101260 87
2002-03-20 09:02:28 51°13.597 2°56.097 3.5 65 10.7 101260 87
2002-03-20 09:02:34 51°13.597 2°56.097 4.3 77 10.7 101260 87
2002-03-20 09:02:38 51°13.597 2°56.097 4.9 76 10.7 101270 87
2002-03-20 09:02:43 51°13.597 2°56.097 7.4 86 10.7 101270 87
2002-03-20 09:02:48 51°13.597 2°56.098 7.7 109 10.7 101260 87
2002-03-20 09:02:53 51°13.597 2°56.098 7.6 101 10.7 101260 87
2002-03-20 09:02:58 51°13.597 2°56.098 8.9 89 10.7 101260 87
2002-03-20 09:03:03 51°13.597 2°56.098 9.3 80 10.7 101260 87
2002-03-20 09:03:08 51°13.597 2°56.098 8.2 97 10.7 101270 87
2002-03-20 09:03:13 51°13.597 2°56.098 9.3 77 10.7 101270 87
2002-03-20 09:03:18 51°13.597 2°56.098 8.7 90 10.7 101260 87
2002-03-20 09:03:23 51°13.597 2°56.098 7 99 10.7 101260 87
2002-03-20 09:03:28 51°13.597 2°56.098 6.2 104 10.7 101260 87
2002-03-20 09:03:33 51°13.597 2°56.098 6.1 92 10.7 101260 87
2002-03-20 09:03:39 51°13.597 2°56.098 6.6 100 10.7 101260 87
2002-03-20 09:03:43 51°13.597 2°56.099 6.4 101 10.7 101260 87
2002-03-20 09:03:48 51°13.596 2°56.099 4.9 69 10.7 101270 87
2002-03-20 09:03:53 51°13.596 2°56.099 4.6 82 10.7 101270 87
2002-03-20 09:03:58 51°13.596 2°56.099 8.3 82 10.7 101260 87
2002-03-20 09:04:03 51°13.596 2°56.099 5.5 76 10.7 101260 87
2002-03-20 09:04:08 51°13.596 2°56.099 7.3 90 10.7 101260 87
2002-03-20 09:04:12 51°13.596 2°56.099 5.7 74 10.7 101260 87
2002-03-20 09:04:17 51°13.596 2°56.099 5.1 76 10.7 101260 87
2002-03-20 09:04:23 51°13.596 2°56.099 4.4 100 10.7 101260 87
2002-03-20 09:04:28 51°13.596 2°56.099 4.2 101 10.7 101270 87
2002-03-20 09:04:32 51°13.596 2°56.099 5.3 74 10.7 101270 87
2002-03-20 09:04:37 51°13.596 2°56.099 5.1 58 10.7 101260 87
2002-03-20 09:04:43 51°13.595 2°56.099 3.7 56 10.7 101260 87
2002-03-20 09:04:47 51°13.595 2°56.099 5.3 90 10.7 101270 87
2002-03-20 09:04:53 51°13.595 2°56.099 4.3 119 10.7 101270 87
2002-03-20 09:04:57 51°13.595 2°56.099 5.5 90 10.7 101270 87
2002-03-20 09:05:03 51°13.595 2°56.099 8 83 10.7 101270 87
2002-03-20 09:05:07 51°13.595 2°56.099 6.1 113 10.7 101260 87
2002-03-20 09:05:12 51°13.595 2°56.099 4.4 132 10.7 101260 87
2002-03-20 09:05:17 51°13.596 2°56.098 6.8 59 10.7 101270 87
2002-03-20 09:05:23 51°13.596 2°56.096 7.4 64 10.7 101270 87
2002-03-20 09:05:27 51°13.596 2°56.094 5.1 92 10.7 101270 87
2002-03-20 09:05:33 51°13.597 2°56.09 5.4 51 10.7 101270 87
2002-03-20 09:05:38 51°13.598 2°56.086 8 76 10.7 101270 87
2002-03-20 09:05:43 51°13.599 2°56.082 9.7 81 10.7 101270 87
2002-03-20 09:05:48 51°13.601 2°56.077 7.6 55 10.7 101270 87
2002-03-20 09:05:53 51°13.602 2°56.072 9.1 76 10.7 101270 87
2002-03-20 09:05:58 51°13.603 2°56.066 9 70 10.7 101270 87
2002-03-20 09:06:03 51°13.605 2°56.06 8.6 121 10.7 101270 87
2002-03-20 09:06:08 51°13.607 2°56.053 7.4 59 10.7 101270 87
2002-03-20 09:06:13 51°13.609 2°56.046 6.7 67 10.7 101270 87
2002-03-20 09:06:18 51°13.611 2°56.038 6.5 75 10.7 101270 87
2002-03-20 09:06:23 51°13.613 2°56.031 6.7 75 10.7 101270 87
2002-03-20 09:06:28 51°13.615 2°56.024 7.6 93 10.7 101280 87
2002-03-20 09:06:33 51°13.617 2°56.017 7.1 52 10.7 101280 87
2002-03-20 09:06:37 51°13.618 2°56.012 8.4 50 10.7 101280 87
2002-03-20 09:06:42 51°13.62 2°56.005 5.3 56 10.7 101280 87
2002-03-20 09:06:46 51°13.621 2°56.001 6.4 81 10.7 101280 87
2002-03-20 09:06:52 51°13.622 2°55.998 6 77 10.7 101280 87
2002-03-20 09:06:57 51°13.623 2°55.997 4.2 81 10.7 101280 87
2002-03-20 09:07:02 51°13.623 2°55.999 4.4 55 10.7 101280 87
2002-03-20 09:07:07 51°13.623 2°56.001 4.4 116 10.7 101290 87
2002-03-20 09:07:12 51°13.623 2°56.003 4.3 74 10.7 101290 87
2002-03-20 09:07:17 51°13.623 2°56.004 6.9 69 10.8 101280 87
2002-03-20 09:07:23 51°13.624 2°56.004 7 79 10.8 101280 87
2002-03-20 09:07:27 51°13.625 2°56.003 6.6 89 10.8 101280 87
2002-03-20 09:07:32 51°13.626 2°56 4.8 63 10.8 101280 87
2002-03-20 09:07:37 51°13.628 2°55.997 5.7 64 10.7 101280 87
2002-03-20 09:07:43 51°13.63 2°55.991 8.6 75 10.7 101280 87
2002-03-20 09:07:48 51°13.632 2°55.985 8.4 71 10.8 101280 87
2002-03-20 09:07:53 51°13.634 2°55.979 7.9 69 10.8 101280 87
2002-03-20 09:07:58 51°13.636 2°55.973 8 74 10.7 101270 87
2002-03-20 09:08:03 51°13.638 2°55.967 9.2 75 10.7 101270 87
2002-03-20 09:08:08 51°13.64 2°55.961 9.4 69 10.7 101280 87
2002-03-20 09:08:13 51°13.641 2°55.955 8.8 72 10.7 101280 87
2002-03-20 09:08:18 51°13.643 2°55.949 7.1 83 10.7 101280 87
2002-03-20 09:08:23 51°13.645 2°55.943 6.6 87 10.7 101280 87
2002-03-20 09:08:28 51°13.647 2°55.937 3.8 14 10.7 101270 87
2002-03-20 09:08:33 51°13.649 2°55.93 5 75 10.7 101270 87
2002-03-20 09:08:38 51°13.65 2°55.924 8 54 10.7 101280 87
2002-03-20 09:08:43 51°13.652 2°55.918 9.1 56 10.7 101280 87
2002-03-20 09:08:48 51°13.654 2°55.911 8.5 56 10.7 101280 87
2002-03-20 09:08:53 51°13.656 2°55.905 9.3 62 10.7 101280 87
2002-03-20 09:08:58 51°13.658 2°55.898 5.9 63 10.7 101280 87
2002-03-20 09:09:03 51°13.66 2°55.891 6.3 72 10.7 101280 87
2002-03-20 09:09:08 51°13.662 2°55.883 7.6 88 10.7 101280 87
2002-03-20 09:09:13 51°13.664 2°55.876 7.9 79 10.7 101280 87
2002-03-20 09:09:18 51°13.666 2°55.868 7.7 66 10.7 101280 87
2002-03-20 09:09:23 51°13.668 2°55.86 7.7 65 10.7 101280 87
2002-03-20 09:09:28 51°13.67 2°55.851 8.1 63 10.7 101280 87
2002-03-20 09:09:33 51°13.672 2°55.842 7.5 78 10.7 101280 87
2002-03-20 09:09:38 51°13.674 2°55.833 6.6 63 10.7 101270 87
2002-03-20 09:09:43 51°13.675 2°55.824 7.8 49 10.7 101270 87
2002-03-20 09:09:48 51°13.677 2°55.814 6.7 57 10.7 101280 87
2002-03-20 09:09:53 51°13.679 2°55.804 6.7 122 10.7 101280 87
2002-03-20 09:09:58 51°13.68 2°55.795 7.7 64 10.7 101270 87
2002-03-20 09:10:03 51°13.681 2°55.786 5.6 78 10.7 101270 87
2002-03-20 09:10:07 51°13.682 2°55.78 4.9 76 10.7 101280 87
2002-03-20 09:10:13 51°13.683 2°55.77 7.1 69 10.7 101280 87
2002-03-20 09:10:17 51°13.683 2°55.764 7.5 94 10.7 101280 87
2002-03-20 09:10:22 51°13.684 2°55.758 7.5 79 10.7 101280 87
2002-03-20 09:10:27 51°13.684 2°55.755 2.9 24 10.7 101290 87
2002-03-20 09:10:32 51°13.685 2°55.754 2.9 36 10.7 101290 87
2002-03-20 09:10:37 51°13.686 2°55.754 4.3 37 10.7 101290 87
2002-03-20 09:10:43 51°13.688 2°55.757 4.3 353 10.7 101290 87
2002-03-20 09:10:47 51°13.691 2°55.76 7.4 352 10.7 101280 87
2002-03-20 09:10:53 51°13.695 2°55.763 4.9 333 10.7 101280 87
2002-03-20 09:10:58 51°13.7 2°55.766 3.8 347 10.8 101300 87
2002-03-20 09:11:03 51°13.706 2°55.767 5.1 343 10.8 101300 87
2002-03-20 09:11:08 51°13.713 2°55.767 8.9 318 10.8 101300 88
2002-03-20 09:11:12 51°13.718 2°55.765 6 278 10.8 101300 88
2002-03-20 09:11:17 51°13.724 2°55.762 4.6 322 10.7 101290 87
2002-03-20 09:11:22 51°13.729 2°55.759 6 309 10.7 101290 87
2002-03-20 09:11:27 51°13.734 2°55.756 5.3 292 10.7 101310 87
2002-03-20 09:11:32 51°13.737 2°55.754 4.8 299 10.7 101310 87
2002-03-20 09:11:37 51°13.739 2°55.752 2.3 326 10.7 101290 87
2002-03-20 09:11:43 51°13.74 2°55.751 2.1 278 10.7 101290 87
2002-03-20 09:11:47 51°13.74 2°55.751 3.7 298 10.7 101300 87
2002-03-20 09:11:52 51°13.739 2°55.752 3.6 294 10.7 101300 87
2002-03-20 09:11:59 51°13.737 2°55.755 2.9 312 10.7 101300 87
2002-03-20 09:12:03 51°13.735 2°55.757 1.6 308 10.7 101300 87
2002-03-20 09:12:08 51°13.732 2°55.761 2.4 330 10.7 101290 87
2002-03-20 09:12:13 51°13.729 2°55.765 1.9 9 10.7 101290 87
2002-03-20 09:12:18 51°13.726 2°55.77 3.8 294 10.7 101300 87
2002-03-20 09:12:23 51°13.722 2°55.774 2.3 4 10.7 101300 87
2002-03-20 09:12:28 51°13.718 2°55.779 4.6 319 10.7 101300 87
2002-03-20 09:12:33 51°13.715 2°55.785 5.1 303 10.7 101300 87
2002-03-20 09:12:38 51°13.711 2°55.79 3.3 303 10.7 101300 87
2002-03-20 09:12:43 51°13.708 2°55.795 5.3 277 10.7 101300 87
2002-03-20 09:12:48 51°13.705 2°55.8 5.1 298 10.7 101300 87
2002-03-20 09:12:53 51°13.702 2°55.806 4.5 289 10.7 101300 87
2002-03-20 09:12:58 51°13.699 2°55.811 1.8 239 10.7 101300 87
2002-03-20 09:13:03 51°13.697 2°55.816 3.5 275 10.7 101300 87
2002-03-20 09:13:07 51°13.695 2°55.82 3.7 298 10.7 101310 87
2002-03-20 09:13:12 51°13.692 2°55.824 5.2 279 10.7 101310 87
2002-03-20 09:13:17 51°13.69 2°55.828 6.4 307 10.7 101310 87
2002-03-20 09:13:23 51°13.687 2°55.833 5.7 316 10.7 101310 87
2002-03-20 09:13:27 51°13.685 2°55.835 4.3 283 10.7 101300 87
2002-03-20 09:13:32 51°13.684 2°55.837 4.4 301 10.7 101300 87
2002-03-20 09:13:37 51°13.683 2°55.839 8.2 274 10.7 101300 87
2002-03-20 09:13:43 51°13.682 2°55.841 8 279 10.7 101300 87
2002-03-20 09:13:47 51°13.681 2°55.842 7.1 289 10.7 101300 87
2002-03-20 09:13:52 51°13.68 2°55.843 7.1 295 10.7 101300 87
2002-03-20 09:13:57 51°13.679 2°55.844 7.1 285 10.7 101300 87
2002-03-20 09:14:03 51°13.679 2°55.845 6.7 274 10.7 101300 87
2002-03-20 09:14:07 51°13.679 2°55.845 7 279 10.7 101290 87
2002-03-20 09:14:13 51°13.678 2°55.846 7 284 10.7 101290 87
2002-03-20 09:14:17 51°13.678 2°55.847 8 284 10.7 101300 87
2002-03-20 09:14:23 51°13.678 2°55.848 6.3 289 10.7 101300 87
2002-03-20 09:14:27 51°13.677 2°55.849 5.2 288 10.7 101300 87
2002-03-20 09:14:32 51°13.676 2°55.851 5.9 304 10.7 101300 87
2002-03-20 09:14:37 51°13.676 2°55.852 5.5 297 10.7 101300 87
2002-03-20 09:14:42 51°13.675 2°55.853 6.6 301 10.7 101300 87
2002-03-20 09:14:47 51°13.675 2°55.854 3.9 322 10.7 101290 87
2002-03-20 09:14:52 51°13.675 2°55.854 7.1 301 10.7 101290 87
2002-03-20 09:14:57 51°13.675 2°55.855 6.5 287 10.7 101300 87
2002-03-20 09:15:03 51°13.675 2°55.856 8.1 295 10.7 101300 87
2002-03-20 09:15:08 51°13.675 2°55.856 4.9 294 10.7 101290 86
2002-03-20 09:15:13 51°13.675 2°55.856 5.5 286 10.7 101290 86
2002-03-20 09:15:18 51°13.675 2°55.856 6 294 10.7 101310 86
2002-03-20 09:15:23 51°13.675 2°55.856 8.8 260 10.7 101310 86
2002-03-20 09:15:28 51°13.675 2°55.856 6.5 286 10.7 101300 86
2002-03-20 09:15:33 51°13.675 2°55.856 6.1 286 10.7 101300 86
2002-03-20 09:15:37 51°13.676 2°55.856 6.4 298 10.7 101300 86
2002-03-20 09:15:43 51°13.676 2°55.856 6.2 289 10.7 101300 86
2002-03-20 09:15:47 51°13.676 2°55.856 3.8 307 10.7 101300 86
2002-03-20 09:15:52 51°13.677 2°55.856 7.8 293 10.7 101300 86
2002-03-20 09:15:57 51°13.677 2°55.855 6.2 285 10.7 101300 86
2002-03-20 09:16:02 51°13.677 2°55.855 8.9 295 10.7 101300 86
2002-03-20 09:16:07 51°13.678 2°55.855 9.2 279 10.7 101300 86
2002-03-20 09:16:12 51°13.678 2°55.854 9.2 290 10.7 101300 86
2002-03-20 09:16:17 51°13.679 2°55.854 9.8 297 10.7 101300 86
2002-03-20 09:16:23 51°13.681 2°55.853 7.7 293 10.7 101300 86
2002-03-20 09:16:27 51°13.682 2°55.852 7.4 291 10.7 101300 86
2002-03-20 09:16:32 51°13.683 2°55.85 7 294 10.7 101300 86
2002-03-20 09:16:37 51°13.685 2°55.848 7.2 297 10.7 101300 86
2002-03-20 09:16:42 51°13.687 2°55.846 7.5 292 10.7 101300 86
2002-03-20 09:16:47 51°13.689 2°55.844 6.9 291 10.7 101290 86
2002-03-20 09:16:52 51°13.691 2°55.841 5.8 295 10.7 101290 86
2002-03-20 09:16:57 51°13.693 2°55.837 5.6 274 10.7 101290 86
2002-03-20 09:17:03 51°13.696 2°55.832 7.9 275 10.7 101290 86
2002-03-20 09:17:08 51°13.699 2°55.826 7.1 265 10.7 101290 86
2002-03-20 09:17:13 51°13.702 2°55.821 7.7 273 10.7 101290 86
2002-03-20 09:17:17 51°13.705 2°55.816 8.5 287 10.7 101290 86
2002-03-20 09:17:22 51°13.708 2°55.81 8 280 10.7 101290 86
2002-03-20 09:17:27 51°13.712 2°55.803 4.4 225 10.7 101290 86
2002-03-20 09:17:33 51°13.716 2°55.795 7 254 10.7 101290 86
2002-03-20 09:17:37 51°13.719 2°55.789 6 264 10.7 101290 86
2002-03-20 09:17:43 51°13.724 2°55.78 11.1 316 10.7 101290 86
2002-03-20 09:17:47 51°13.728 2°55.773 8.5 253 10.7 101300 86
2002-03-20 09:17:52 51°13.732 2°55.765 8.3 253 10.7 101300 86
2002-03-20 09:17:57 51°13.737 2°55.757 3.3 253 10.7 101300 86
2002-03-20 09:18:02 51°13.742 2°55.749 6.1 245 10.7 101300 86
2002-03-20 09:18:07 51°13.747 2°55.74 6.8 230 10.7 101290 86
2002-03-20 09:18:13 51°13.753 2°55.73 7.4 281 10.7 101290 86
2002-03-20 09:18:17 51°13.757 2°55.723 7.6 262 10.7 101300 86
2002-03-20 09:18:22 51°13.762 2°55.714 6.2 231 10.7 101300 86
2002-03-20 09:18:27 51°13.768 2°55.706 6.1 256 10.7 101300 86
2002-03-20 09:18:32 51°13.774 2°55.697 6.2 227 10.7 101300 86
2002-03-20 09:18:38 51°13.781 2°55.686 5 245 10.7 101300 86
2002-03-20 09:18:42 51°13.786 2°55.679 5.3 311 10.7 101300 86
2002-03-20 09:18:47 51°13.792 2°55.67 6.2 238 10.7 101300 86
2002-03-20 09:18:52 51°13.799 2°55.662 8.5 260 10.7 101300 86
2002-03-20 09:18:57 51°13.806 2°55.654 6.3 257 10.7 101300 86
2002-03-20 09:19:02 51°13.812 2°55.647 8.2 253 10.7 101300 86
2002-03-20 09:19:07 51°13.819 2°55.641 6.2 292 10.7 101310 86
2002-03-20 09:19:13 51°13.827 2°55.633 5 291 10.7 101310 86
2002-03-20 09:19:17 51°13.833 2°55.628 3.7 317 10.7 101310 86
2002-03-20 09:19:21 51°13.838 2°55.624 4.6 294 10.7 101310 86
2002-03-20 09:19:27 51°13.847 2°55.617 3.6 260 10.7 101290 86
2002-03-20 09:19:32 51°13.854 2°55.611 7.7 264 10.7 101290 86
2002-03-20 09:19:37 51°13.862 2°55.606 8.2 268 10.7 101300 86
2002-03-20 09:19:42 51°13.871 2°55.6 10.3 280 10.7 101300 86
2002-03-20 09:19:47 51°13.879 2°55.594 7.8 274 10.7 101310 86
2002-03-20 09:19:52 51°13.888 2°55.589 8.3 264 10.7 101310 86
2002-03-20 09:19:57 51°13.897 2°55.583 8 245 10.7 101310 86
2002-03-20 09:20:03 51°13.909 2°55.575 7.9 263 10.7 101310 86
2002-03-20 09:20:07 51°13.917 2°55.57 5.5 286 10.7 101310 86
2002-03-20 09:20:12 51°13.927 2°55.563 6.8 257 10.7 101310 86
2002-03-20 09:20:17 51°13.938 2°55.555 8.5 276 10.7 101310 86
2002-03-20 09:20:22 51°13.948 2°55.548 5.6 262 10.7 101310 86
2002-03-20 09:20:27 51°13.959 2°55.541 6.1 285 10.7 101290 86
2002-03-20 09:20:32 51°13.97 2°55.533 5.2 260 10.7 101290 86
2002-03-20 09:20:37 51°13.981 2°55.525 6.6 247 10.7 101300 86
2002-03-20 09:20:42 51°13.992 2°55.518 6.3 287 10.7 101300 86
2002-03-20 09:20:47 51°14.004 2°55.51 8.6 259 10.7 101300 86
2002-03-20 09:20:52 51°14.015 2°55.503 12.1 266 10.7 101300 86
2002-03-20 09:20:57 51°14.026 2°55.496 9 263 10.7 101300 86
2002-03-20 09:21:03 51°14.039 2°55.487 5.4 254 10.7 101300 86
2002-03-20 09:21:07 51°14.048 2°55.481 8.1 286 10.7 101300 86
2002-03-20 09:21:12 51°14.059 2°55.473 6.9 271 10.7 101300 86
2002-03-20 09:21:17 51°14.069 2°55.466 7.6 233 10.7 101310 86
2002-03-20 09:21:22 51°14.08 2°55.458 8.1 242 10.7 101310 86
2002-03-20 09:21:26 51°14.088 2°55.451 7.5 257 10.6 101290 86
2002-03-20 09:21:32 51°14.1 2°55.441 5.6 260 10.6 101290 86
2002-03-20 09:21:37 51°14.11 2°55.433 9.4 267 10.6 101300 86
2002-03-20 09:21:43 51°14.122 2°55.423 8.5 274 10.6 101300 86
2002-03-20 09:21:47 51°14.13 2°55.417 8.8 281 10.6 101300 86
2002-03-20 09:21:53 51°14.142 2°55.407 9 265 10.6 101300 86
2002-03-20 09:21:57 51°14.15 2°55.4 8.3 284 10.6 101290 86
2002-03-20 09:22:03 51°14.162 2°55.388 10 264 10.6 101290 86
2002-03-20 09:22:07 51°14.17 2°55.381 11.9 269 10.6 101290 86
2002-03-20 09:22:13 51°14.181 2°55.368 10.4 271 10.6 101290 86
2002-03-20 09:22:17 51°14.189 2°55.359 10.9 271 10.6 101300 86
2002-03-20 09:22:23 51°14.201 2°55.346 12.7 271 10.6 101300 86
2002-03-20 09:22:27 51°14.208 2°55.336 12.8 270 10.6 101300 86
2002-03-20 09:22:32 51°14.218 2°55.324 12.1 271 10.6 101300 86
2002-03-20 09:22:37 51°14.228 2°55.312 13.1 269 10.6 101300 86
2002-03-20 09:22:42 51°14.237 2°55.299 13 271 10.6 101300 86
2002-03-20 09:22:47 51°14.246 2°55.286 13.9 271 10.5 101290 86
2002-03-20 09:22:52 51°14.255 2°55.272 12.4 272 10.5 101290 86
2002-03-20 09:22:57 51°14.264 2°55.258 12.5 272 10.5 101300 86
2002-03-20 09:23:03 51°14.274 2°55.241 12.8 267 10.5 101300 86
2002-03-20 09:23:07 51°14.281 2°55.23 9.9 261 10.5 101290 86
2002-03-20 09:23:12 51°14.289 2°55.215 13.1 272 10.5 101290 86
2002-03-20 09:23:17 51°14.298 2°55.2 11.8 259 10.4 101290 86
2002-03-20 09:23:23 51°14.308 2°55.183 11.7 246 10.4 101290 86
2002-03-20 09:23:27 51°14.314 2°55.171 10.1 257 10.4 101310 86
2002-03-20 09:23:33 51°14.324 2°55.152 10.6 261 10.4 101310 86
2002-03-20 09:23:37 51°14.331 2°55.14 13.7 266 10.4 101290 86
2002-03-20 09:23:42 51°14.339 2°55.125 14.8 266 10.4 101290 86
2002-03-20 09:23:47 51°14.346 2°55.11 13.3 269 10.4 101290 86
2002-03-20 09:23:53 51°14.355 2°55.091 13 264 10.4 101290 86
2002-03-20 09:23:58 51°14.362 2°55.075 13.8 260 10.3 101290 86
2002-03-20 09:24:03 51°14.368 2°55.058 12.9 257 10.3 101290 86
2002-03-20 09:24:07 51°14.372 2°55.044 13.9 256 10.3 101290 86
2002-03-20 09:24:12 51°14.377 2°55.026 14.2 253 10.3 101290 86
2002-03-20 09:24:17 51°14.38 2°55.008 14.1 248 10.3 101270 86
2002-03-20 09:24:23 51°14.384 2°54.986 13.9 244 10.3 101270 86
2002-03-20 09:24:27 51°14.385 2°54.971 15.7 244 10.3 101280 86
2002-03-20 09:24:32 51°14.387 2°54.953 14 247 10.3 101280 86
2002-03-20 09:24:37 51°14.388 2°54.934 12.4 240 10.3 101270 87
2002-03-20 09:24:42 51°14.388 2°54.915 13.8 238 10.3 101270 87
2002-03-20 09:24:47 51°14.389 2°54.895 13.5 241 10.2 101270 87
2002-03-20 09:24:52 51°14.389 2°54.875 13.3 242 10.2 101270 87
2002-03-20 09:24:57 51°14.389 2°54.854 13.7 243 10.2 101270 87
2002-03-20 09:25:03 51°14.39 2°54.827 14.4 243 10.2 101270 87
2002-03-20 09:25:07 51°14.39 2°54.81 16.2 242 10.2 101270 87
2002-03-20 09:25:13 51°14.39 2°54.782 15.5 243 10.2 101270 87
2002-03-20 09:25:17 51°14.39 2°54.764 14.5 239 10.2 101270 87
2002-03-20 09:25:22 51°14.39 2°54.741 16.9 239 10.2 101270 87
2002-03-20 09:25:27 51°14.388 2°54.718 15.4 242 10.2 101270 87
2002-03-20 09:25:32 51°14.386 2°54.694 15.2 239 10.2 101270 87
2002-03-20 09:25:37 51°14.384 2°54.671 14.8 236 10.2 101270 87
2002-03-20 09:25:42 51°14.381 2°54.647 14.6 238 10.2 101270 87
2002-03-20 09:25:48 51°14.378 2°54.619 14.9 231 10.2 101260 87
2002-03-20 09:25:53 51°14.373 2°54.596 14 230 10.2 101260 87
2002-03-20 09:25:57 51°14.369 2°54.577 15.8 229 10.2 101280 87
2002-03-20 09:26:02 51°14.364 2°54.555 16.2 227 10.2 101280 87
2002-03-20 09:26:07 51°14.357 2°54.532 16.3 226 10.2 101280 87
2002-03-20 09:26:13 51°14.35 2°54.505 14 229 10.2 101280 87
2002-03-20 09:26:17 51°14.345 2°54.487 14.7 236 10.2 101270 87
2002-03-20 09:26:23 51°14.337 2°54.46 16.3 234 10.2 101270 87
2002-03-20 09:26:28 51°14.331 2°54.436 15.5 231 10.2 101280 87
2002-03-20 09:26:32 51°14.326 2°54.417 14.8 231 10.2 101280 87
2002-03-20 09:26:37 51°14.321 2°54.394 15.4 316 10.2 101260 87
2002-03-20 09:26:42 51°14.315 2°54.37 17.3 230 10.2 101260 87
2002-03-20 09:26:47 51°14.309 2°54.346 14.9 232 10.1 101280 87
2002-03-20 09:26:52 51°14.303 2°54.322 15.3 230 10.1 101280 87
2002-03-20 09:26:57 51°14.297 2°54.298 15.2 229 10.1 101270 87
2002-03-20 09:27:03 51°14.29 2°54.269 15.2 230 10.1 101270 87
2002-03-20 09:27:07 51°14.285 2°54.25 16.5 233 10.1 101270 88
2002-03-20 09:27:12 51°14.279 2°54.226 16 229 10.1 101270 88
2002-03-20 09:27:17 51°14.273 2°54.201 15.6 230 10.1 101260 88
2002-03-20 09:27:23 51°14.265 2°54.172 16.2 229 10.1 101260 88
2002-03-20 09:27:27 51°14.261 2°54.152 16.8 229 10.1 101270 88
2002-03-20 09:27:32 51°14.254 2°54.128 15.2 229 10.1 101270 88
2002-03-20 09:27:37 51°14.247 2°54.103 14.8 232 10.1 101270 88
2002-03-20 09:27:43 51°14.239 2°54.074 16.7 230 10.1 101270 88
2002-03-20 09:27:47 51°14.233 2°54.055 17.9 227 10.1 101270 88
2002-03-20 09:27:53 51°14.225 2°54.025 17.1 228 10.1 101270 88
2002-03-20 09:27:57 51°14.218 2°54.005 16.7 229 10.1 101260 88
2002-03-20 09:28:03 51°14.21 2°53.975 15.4 226 10.1 101260 88
2002-03-20 09:28:07 51°14.204 2°53.955 16.7 227 10.1 101270 88
2002-03-20 09:28:13 51°14.195 2°53.925 16.8 230 10.1 101270 88
2002-03-20 09:28:17 51°14.188 2°53.905 15.5 223 10.1 101270 88
2002-03-20 09:28:22 51°14.18 2°53.88 15.8 228 10.1 101270 88
2002-03-20 09:28:27 51°14.17 2°53.855 17.9 224 10.1 101270 88
2002-03-20 09:28:33 51°14.16 2°53.824 16.6 224 10.1 101270 88
2002-03-20 09:28:37 51°14.153 2°53.803 16.1 225 10.1 101270 88
2002-03-20 09:28:43 51°14.141 2°53.773 15.5 227 10.1 101270 88
2002-03-20 09:28:47 51°14.134 2°53.752 15.6 227 10.1 101270 88
2002-03-20 09:28:53 51°14.123 2°53.72 17.4 226 10.1 101270 88
2002-03-20 09:28:57 51°14.115 2°53.699 16.2 226 10.1 101260 88
2002-03-20 09:29:02 51°14.106 2°53.673 17 226 10.1 101260 88
2002-03-20 09:29:07 51°14.097 2°53.646 16.3 228 10.1 101270 88
2002-03-20 09:29:12 51°14.088 2°53.62 16.3 226 10.1 101270 88
2002-03-20 09:29:17 51°14.079 2°53.593 17.7 223 10.1 101270 88
2002-03-20 09:29:23 51°14.068 2°53.56 15.5 134 10.1 101270 88
2002-03-20 09:29:27 51°14.061 2°53.539 18.3 230 10.1 101270 88
2002-03-20 09:29:32 51°14.051 2°53.512 17.2 225 10.1 101270 88
2002-03-20 09:29:37 51°14.042 2°53.485 15.7 228 10.1 101280 88
2002-03-20 09:29:43 51°14.031 2°53.453 17.8 226 10.1 101280 88
2002-03-20 09:29:47 51°14.023 2°53.431 15.4 231 10 101270 88
2002-03-20 09:29:53 51°14.012 2°53.399 15.7 226 10 101270 88
2002-03-20 09:29:57 51°14.005 2°53.377 19.3 227 10 101260 88
2002-03-20 09:30:01 51°13.997 2°53.355 16.9 227 10 101260 88
2002-03-20 09:30:07 51°13.987 2°53.322 15.7 226 10 101270 88
2002-03-20 09:30:12 51°13.977 2°53.295 17.9 227 10 101270 88
2002-03-20 09:30:17 51°13.968 2°53.268 16.6 230 10 101280 88
2002-03-20 09:30:22 51°13.958 2°53.241 18.1 135 10 101280 88
2002-03-20 09:30:27 51°13.95 2°53.214 17.9 228 10 101260 88
2002-03-20 09:30:33 51°13.938 2°53.181 17.5 226 10 101260 88
2002-03-20 09:30:37 51°13.931 2°53.159 18.8 228 10 101270 88
2002-03-20 09:30:43 51°13.92 2°53.126 16.4 227 10 101270 88
2002-03-20 09:30:47 51°13.911 2°53.105 16.3 224 10 101280 88
2002-03-20 09:30:51 51°13.905 2°53.082 16.9 225 10 101280 88
2002-03-20 09:30:57 51°13.893 2°53.05 15.6 225 10 101270 88
2002-03-20 09:31:02 51°13.883 2°53.023 17 226 10 101270 88
2002-03-20 09:31:07 51°13.874 2°52.995 16.5 227 10 101280 88
2002-03-20 09:31:12 51°13.865 2°52.968 17 225 10 101280 88
2002-03-20 09:31:17 51°13.856 2°52.941 18.1 224 10 101280 88
2002-03-20 09:31:23 51°13.844 2°52.908 17 227 10 101280 88
2002-03-20 09:31:27 51°13.837 2°52.886 17.4 225 10 101290 88
2002-03-20 09:31:32 51°13.828 2°52.859 17.8 226 10 101290 88
2002-03-20 09:31:37 51°13.819 2°52.831 16.9 225 10 101270 88
2002-03-20 09:31:43 51°13.807 2°52.798 16.9 225 10 101270 88
2002-03-20 09:31:47 51°13.8 2°52.776 16.7 227 10 101280 88
2002-03-20 09:31:53 51°13.789 2°52.743 16.4 229 10 101280 88
2002-03-20 09:31:57 51°13.781 2°52.721 17.3 315 10 101280 88
2002-03-20 09:32:03 51°13.77 2°52.689 17.3 224 10 101280 88
2002-03-20 09:32:08 51°13.761 2°52.661 18.6 222 10 101270 88
2002-03-20 09:32:13 51°13.752 2°52.634 17.6 229 10 101270 88
2002-03-20 09:32:17 51°13.744 2°52.612 16.8 226 10 101280 88
2002-03-20 09:32:21 51°13.736 2°52.59 16.7 228 10 101280 88
2002-03-20 09:32:27 51°13.725 2°52.557 17.2 230 10 101280 88
2002-03-20 09:32:32 51°13.716 2°52.53 17.9 227 10 101280 88
2002-03-20 09:32:37 51°13.706 2°52.502 17.5 223 10 101290 88
2002-03-20 09:32:43 51°13.695 2°52.47 17.6 226 10 101290 88
2002-03-20 09:32:48 51°13.686 2°52.443 17.6 225 10 101280 88
2002-03-20 09:32:53 51°13.677 2°52.415 17.5 223 10 101280 88
2002-03-20 09:32:57 51°13.669 2°52.393 18.6 225 10 101280 88
2002-03-20 09:33:03 51°13.658 2°52.36 17.5 225 10 101280 88
2002-03-20 09:33:07 51°13.65 2°52.338 18.6 226 10 101290 88
2002-03-20 09:33:12 51°13.641 2°52.311 17.2 225 10 101290 88
2002-03-20 09:33:18 51°13.63 2°52.278 16.6 222 10 101280 88
2002-03-20 09:33:22 51°13.623 2°52.256 16.2 224 10 101280 88
2002-03-20 09:33:27 51°13.613 2°52.229 18.3 226 10 101280 88
2002-03-20 09:33:32 51°13.604 2°52.201 17.2 225 10 101280 88
2002-03-20 09:33:37 51°13.594 2°52.174 16.6 226 10 101300 88
2002-03-20 09:33:43 51°13.583 2°52.141 16.8 225 10 101300 88
2002-03-20 09:33:47 51°13.576 2°52.119 16.8 315 10 101300 88
2002-03-20 09:33:52 51°13.566 2°52.092 17.9 223 10 101300 88
2002-03-20 09:33:57 51°13.557 2°52.064 17.1 315 10 101300 88
2002-03-20 09:34:03 51°13.546 2°52.031 16 228 10 101300 88
2002-03-20 09:34:07 51°13.538 2°52.009 17.8 222 10 101300 88
2002-03-20 09:34:12 51°13.53 2°51.981 17.1 228 10 101300 88
2002-03-20 09:34:17 51°13.52 2°51.954 16.5 225 10 101310 88
2002-03-20 09:34:23 51°13.509 2°51.921 18 228 10 101310 88
2002-03-20 09:34:28 51°13.5 2°51.893 17.3 225 10 101290 88
2002-03-20 09:34:32 51°13.492 2°51.871 16.5 227 10 101290 88
2002-03-20 09:34:37 51°13.483 2°51.843 14.9 225 10 101300 88
2002-03-20 09:34:43 51°13.472 2°51.81 16.7 224 10 101300 88
2002-03-20 09:34:47 51°13.464 2°51.789 16.6 226 10 101300 88
2002-03-20 09:34:52 51°13.455 2°51.761 16.4 227 10 101300 88
2002-03-20 09:34:57 51°13.446 2°51.734 16.7 228 10 101300 88
2002-03-20 09:35:02 51°13.436 2°51.707 18.4 225 10 101300 88
2002-03-20 09:35:08 51°13.426 2°51.673 17.6 225 10 101300 88
2002-03-20 09:35:12 51°13.418 2°51.652 16.8 227 10 101300 88
2002-03-20 09:35:17 51°13.408 2°51.625 17.4 226 10 101300 88
2002-03-20 09:35:22 51°13.399 2°51.597 18.1 227 10 101300 88
2002-03-20 09:35:27 51°13.389 2°51.57 17.1 226 10 101290 88
2002-03-20 09:35:32 51°13.38 2°51.542 16.1 228 10 101290 88
2002-03-20 09:35:37 51°13.371 2°51.515 16.1 225 10 101300 88
2002-03-20 09:35:43 51°13.36 2°51.482 16.4 225 10 101300 88
2002-03-20 09:35:47 51°13.352 2°51.461 18.3 225 10 101300 88
2002-03-20 09:35:52 51°13.343 2°51.433 16.4 225 10 101300 88
2002-03-20 09:35:57 51°13.334 2°51.405 17.4 226 10 101300 89
2002-03-20 09:36:03 51°13.323 2°51.372 18 227 10 101300 89
2002-03-20 09:36:07 51°13.315 2°51.35 16 224 10 101300 89
2002-03-20 09:36:13 51°13.304 2°51.317 19.6 224 10 101300 89
2002-03-20 09:36:17 51°13.296 2°51.295 16.8 224 9.9 101300 89
2002-03-20 09:36:23 51°13.285 2°51.263 16 228 9.9 101300 89
2002-03-20 09:36:27 51°13.278 2°51.241 17.7 225 10 101300 89
2002-03-20 09:36:32 51°13.268 2°51.213 17.1 315 10 101300 89
2002-03-20 09:36:37 51°13.259 2°51.186 15.7 228 10 101300 89
2002-03-20 09:36:42 51°13.25 2°51.159 18.2 226 10 101300 89
2002-03-20 09:36:47 51°13.241 2°51.131 19.1 224 10 101300 89
2002-03-20 09:36:52 51°13.231 2°51.104 15.7 315 10 101300 89
2002-03-20 09:36:57 51°13.222 2°51.076 16.1 224 10 101300 89
2002-03-20 09:37:03 51°13.211 2°51.043 17.9 225 10 101300 89
2002-03-20 09:37:07 51°13.203 2°51.021 17.5 226 10 101300 89
2002-03-20 09:37:12 51°13.194 2°50.994 18.4 224 10 101300 89
2002-03-20 09:37:17 51°13.185 2°50.966 15.7 225 10 101300 89
2002-03-20 09:37:22 51°13.175 2°50.939 15.6 222 10 101300 89
2002-03-20 09:37:27 51°13.166 2°50.912 18.4 224 10 101290 89
2002-03-20 09:37:32 51°13.157 2°50.885 17.7 225 10 101290 89
2002-03-20 09:37:37 51°13.147 2°50.857 18 225 9.9 101290 89
2002-03-20 09:37:43 51°13.135 2°50.825 16.7 224 9.9 101290 89
2002-03-20 09:37:47 51°13.128 2°50.802 17.2 223 9.9 101310 89
2002-03-20 09:37:52 51°13.119 2°50.775 16.7 226 9.9 101310 89
2002-03-20 09:37:58 51°13.108 2°50.742 17.6 223 10 101290 89
2002-03-20 09:38:03 51°13.098 2°50.715 16.8 134 10 101290 89
2002-03-20 09:38:07 51°13.091 2°50.693 18.1 229 10 101300 89
2002-03-20 09:38:13 51°13.08 2°50.66 17.9 225 10 101300 89
2002-03-20 09:38:17 51°13.073 2°50.638 17.6 226 10 101290 89
2002-03-20 09:38:22 51°13.064 2°50.61 18.1 227 10 101290 89
2002-03-20 09:38:27 51°13.055 2°50.582 17.7 226 10 101300 89
2002-03-20 09:38:32 51°13.047 2°50.554 16.2 316 10 101300 89
2002-03-20 09:38:37 51°13.038 2°50.526 16.6 228 10 101290 89
2002-03-20 09:38:42 51°13.03 2°50.498 16.4 224 10 101290 89
2002-03-20 09:38:47 51°13.021 2°50.471 15.5 227 10 101300 89
2002-03-20 09:38:52 51°13.012 2°50.442 16.5 226 10 101300 89
2002-03-20 09:38:57 51°13.004 2°50.414 16.6 226 10 101300 89
2002-03-20 09:39:03 51°12.993 2°50.381 16.4 227 10 101300 89
2002-03-20 09:39:07 51°12.987 2°50.358 16.2 223 10 101300 89
2002-03-20 09:39:12 51°12.978 2°50.331 17.1 315 10 101300 89
2002-03-20 09:39:17 51°12.969 2°50.303 17.3 227 10 101300 89
2002-03-20 09:39:23 51°12.959 2°50.269 16.9 226 10 101300 89
2002-03-20 09:39:27 51°12.952 2°50.247 17.2 225 10 101300 89
2002-03-20 09:39:32 51°12.943 2°50.219 16.9 225 10 101300 89
2002-03-20 09:39:37 51°12.934 2°50.191 17 227 9.9 101310 89
2002-03-20 09:39:42 51°12.926 2°50.163 17 225 9.9 101310 89
2002-03-20 09:39:47 51°12.917 2°50.135 18.5 224 10 101300 89
2002-03-20 09:39:53 51°12.906 2°50.101 17.7 227 10 101300 89
2002-03-20 09:39:58 51°12.897 2°50.073 15.7 226 9.9 101300 89
2002-03-20 09:40:03 51°12.889 2°50.045 16.3 225 9.9 101300 89
2002-03-20 09:40:07 51°12.882 2°50.022 17.8 227 9.9 101300 89
2002-03-20 09:40:13 51°12.872 2°49.989 15.8 225 9.9 101300 89
2002-03-20 09:40:17 51°12.865 2°49.967 16.2 228 10 101290 89
2002-03-20 09:40:23 51°12.854 2°49.933 16.8 316 10 101290 89
2002-03-20 09:40:27 51°12.847 2°49.911 18.1 225 10 101300 89
2002-03-20 09:40:32 51°12.838 2°49.884 18 225 10 101300 89
2002-03-20 09:40:37 51°12.829 2°49.856 17.8 226 9.9 101300 89
2002-03-20 09:40:43 51°12.817 2°49.823 16.9 226 9.9 101300 89
2002-03-20 09:40:47 51°12.81 2°49.801 16.1 227 9.9 101300 89
2002-03-20 09:40:52 51°12.801 2°49.773 15.8 135 9.9 101300 89
2002-03-20 09:40:57 51°12.791 2°49.746 16.3 315 10 101290 89
2002-03-20 09:41:03 51°12.781 2°49.712 18.8 224 10 101290 89
2002-03-20 09:41:07 51°12.774 2°49.69 18.7 227 10 101290 89
2002-03-20 09:41:11 51°12.767 2°49.667 16.4 225 10 101290 89
2002-03-20 09:41:17 51°12.756 2°49.634 15.5 229 10 101310 89
2002-03-20 09:41:22 51°12.748 2°49.605 17.7 227 10 101310 89
2002-03-20 09:41:27 51°12.739 2°49.578 18.3 226 10 101300 89
2002-03-20 09:41:32 51°12.73 2°49.549 18.2 227 10 101300 89
2002-03-20 09:41:37 51°12.722 2°49.521 16.2 228 10 101300 89
2002-03-20 09:41:42 51°12.713 2°49.493 18 226 10 101300 89
2002-03-20 09:41:47 51°12.704 2°49.464 16.5 225 10 101300 89
2002-03-20 09:41:52 51°12.696 2°49.436 16.4 316 10 101300 89
2002-03-20 09:41:57 51°12.687 2°49.408 16.5 224 9.9 101310 89
2002-03-20 09:42:02 51°12.678 2°49.38 18 226 9.9 101310 89
2002-03-20 09:42:07 51°12.669 2°49.352 17.7 229 9.9 101290 89
2002-03-20 09:42:13 51°12.659 2°49.318 16.3 226 9.9 101290 89
2002-03-20 09:42:17 51°12.652 2°49.295 16.5 227 10 101290 89
2002-03-20 09:42:22 51°12.645 2°49.269 16.6 230 10 101290 89
2002-03-20 09:42:27 51°12.638 2°49.244 16.2 231 9.9 101300 89
2002-03-20 09:42:32 51°12.631 2°49.221 15.3 230 9.9 101300 89
2002-03-20 09:42:36 51°12.626 2°49.203 14.7 233 9.9 101300 89
2002-03-20 09:42:42 51°12.619 2°49.178 14.7 234 9.9 101300 89
2002-03-20 09:42:47 51°12.615 2°49.158 15.3 232 10 101310 89
2002-03-20 09:42:52 51°12.611 2°49.14 13.4 236 10 101310 89
2002-03-20 09:42:56 51°12.609 2°49.125 12.7 236 9.9 101300 89
2002-03-20 09:43:03 51°12.604 2°49.102 12.4 237 9.9 101300 89
2002-03-20 09:43:07 51°12.602 2°49.089 13.2 239 10 101310 89
2002-03-20 09:43:12 51°12.6 2°49.074 12.7 238 10 101310 89
2002-03-20 09:43:17 51°12.599 2°49.059 12 239 9.9 101310 89
2002-03-20 09:43:23 51°12.597 2°49.042 12 240 9.9 101310 89
2002-03-20 09:43:27 51°12.596 2°49.031 12.4 247 9.9 101310 89
2002-03-20 09:43:32 51°12.595 2°49.018 12.7 244 9.9 101310 89
2002-03-20 09:43:37 51°12.594 2°49.005 10.6 249 9.9 101310 89
2002-03-20 09:43:43 51°12.593 2°48.991 10.5 248 9.9 101310 89
2002-03-20 09:43:47 51°12.593 2°48.982 12.5 247 9.9 101310 89
2002-03-20 09:43:53 51°12.592 2°48.97 11.5 248 9.9 101310 89
2002-03-20 09:43:57 51°12.592 2°48.964 11.2 245 9.9 101310 89
2002-03-20 09:44:03 51°12.591 2°48.956 11.1 241 9.9 101310 89
2002-03-20 09:44:08 51°12.59 2°48.952 10.8 244 10 101310 89
2002-03-20 09:44:13 51°12.59 2°48.949 10.4 248 10 101310 89
2002-03-20 09:44:17 51°12.59 2°48.948 9.1 248 9.9 101310 89
2002-03-20 09:44:23 51°12.589 2°48.949 9.4 255 9.9 101310 89
2002-03-20 09:44:27 51°12.589 2°48.951 8.1 247 10 101320 89
2002-03-20 09:44:33 51°12.588 2°48.953 9.1 257 10 101320 89
2002-03-20 09:44:38 51°12.588 2°48.954 10.6 254 10 101310 89
2002-03-20 09:44:43 51°12.587 2°48.955 9 255 10 101310 89
2002-03-20 09:44:48 51°12.587 2°48.956 8.9 266 10 101320 89
2002-03-20 09:44:53 51°12.586 2°48.956 9.1 253 10 101320 89
2002-03-20 09:44:58 51°12.585 2°48.955 8.6 259 10 101320 89
2002-03-20 09:45:03 51°12.585 2°48.953 9.4 254 10 101320 89
2002-03-20 09:45:07 51°12.585 2°48.951 9.1 259 10 101310 89
2002-03-20 09:45:12 51°12.585 2°48.949 9.2 248 10 101310 89
2002-03-20 09:45:17 51°12.584 2°48.947 9.3 256 10 101320 89
2002-03-20 09:45:23 51°12.584 2°48.944 10.3 256 10 101320 89
2002-03-20 09:45:27 51°12.583 2°48.942 10 253 9.9 101320 89
2002-03-20 09:45:33 51°12.583 2°48.94 9 252 9.9 101320 89
2002-03-20 09:45:38 51°12.583 2°48.938 10 256 10 101320 89
2002-03-20 09:45:43 51°12.582 2°48.936 9.3 254 10 101320 89
2002-03-20 09:45:48 51°12.582 2°48.934 10.6 255 10 101320 89
2002-03-20 09:45:53 51°12.581 2°48.932 9.5 249 10 101320 89
2002-03-20 09:45:58 51°12.581 2°48.931 9.2 255 10 101320 89
2002-03-20 09:46:03 51°12.581 2°48.929 8.9 256 10 101320 89
2002-03-20 09:46:07 51°12.581 2°48.928 9.1 253 9.9 101320 89
2002-03-20 09:46:12 51°12.58 2°48.926 9.5 249 9.9 101320 89
2002-03-20 09:46:17 51°12.58 2°48.925 9.3 253 9.9 101320 89
2002-03-20 09:46:22 51°12.58 2°48.924 9.1 248 9.9 101320 89
2002-03-20 09:46:28 51°12.579 2°48.922 9 254 10 101330 89
2002-03-20 09:46:33 51°12.579 2°48.921 9.3 258 10 101330 89
2002-03-20 09:46:37 51°12.578 2°48.92 8.4 257 10 101320 89
2002-03-20 09:46:42 51°12.579 2°48.919 9.2 256 10 101320 89
2002-03-20 09:46:47 51°12.578 2°48.918 9 260 10 101330 89
2002-03-20 09:46:52 51°12.578 2°48.917 10.8 259 10 101330 89
2002-03-20 09:46:57 51°12.577 2°48.916 9.7 255 9.9 101330 89
2002-03-20 09:47:03 51°12.577 2°48.915 9.7 263 9.9 101330 89
2002-03-20 09:47:07 51°12.577 2°48.914 9.7 266 10 101330 89
2002-03-20 09:47:12 51°12.576 2°48.913 8.9 263 10 101330 89
2002-03-20 09:47:17 51°12.576 2°48.912 9.9 264 9.9 101330 89
2002-03-20 09:47:22 51°12.576 2°48.912 9.7 264 9.9 101330 89
2002-03-20 09:47:27 51°12.576 2°48.911 9.3 270 9.9 101330 89
2002-03-20 09:47:32 51°12.575 2°48.91 9 272 9.9 101330 89
2002-03-20 09:47:37 51°12.575 2°48.909 10 264 9.9 101330 89
2002-03-20 09:47:42 51°12.575 2°48.909 9.7 272 9.9 101330 89
2002-03-20 09:47:47 51°12.575 2°48.907 9.8 270 9.9 101330 89
2002-03-20 09:47:52 51°12.575 2°48.906 9.5 277 9.9 101330 89
2002-03-20 09:47:57 51°12.575 2°48.905 10.8 273 9.9 101330 89
2002-03-20 09:48:03 51°12.575 2°48.903 10 272 9.9 101330 89
2002-03-20 09:48:07 51°12.575 2°48.901 9.8 283 9.9 101330 89
2002-03-20 09:48:12 51°12.575 2°48.899 9.2 278 9.9 101330 89
2002-03-20 09:48:17 51°12.576 2°48.896 9.9 276 9.9 101340 89
2002-03-20 09:48:22 51°12.576 2°48.894 9.6 275 9.9 101340 89
2002-03-20 09:48:27 51°12.576 2°48.891 9.4 273 9.9 101330 89
2002-03-20 09:48:32 51°12.577 2°48.889 10.8 273 9.9 101330 89
2002-03-20 09:48:37 51°12.577 2°48.886 9.5 277 9.9 101340 89
2002-03-20 09:48:42 51°12.578 2°48.883 9.3 278 9.9 101340 89
2002-03-20 09:48:47 51°12.578 2°48.88 10.3 280 9.9 101330 89
2002-03-20 09:48:52 51°12.579 2°48.878 10.6 275 9.9 101330 89
2002-03-20 09:48:57 51°12.579 2°48.875 9.3 276 9.9 101330 89
2002-03-20 09:49:02 51°12.58 2°48.872 10.8 277 9.9 101330 89
2002-03-20 09:49:07 51°12.58 2°48.869 10.1 269 9.9 101340 89
2002-03-20 09:49:12 51°12.581 2°48.866 9.4 278 9.9 101340 89
2002-03-20 09:49:18 51°12.581 2°48.863 10.7 276 9.9 101340 89
2002-03-20 09:49:22 51°12.582 2°48.86 10.1 277 9.9 101340 89
2002-03-20 09:49:27 51°12.582 2°48.857 10.7 278 9.9 101340 89
2002-03-20 09:49:32 51°12.583 2°48.854 9.7 276 9.9 101340 89
2002-03-20 09:49:37 51°12.583 2°48.851 10.3 274 9.9 101340 89
2002-03-20 09:49:43 51°12.584 2°48.848 10.3 271 9.9 101340 89
2002-03-20 09:49:47 51°12.584 2°48.846 10.2 270 9.9 101340 89
2002-03-20 09:49:52 51°12.585 2°48.843 10.1 272 9.9 101340 89
2002-03-20 09:49:57 51°12.585 2°48.84 8.7 273 9.9 101330 89
2002-03-20 09:50:03 51°12.586 2°48.836 9.2 273 9.9 101330 89
2002-03-20 09:50:08 51°12.586 2°48.833 9.6 265 9.9 101340 89
2002-03-20 09:50:12 51°12.587 2°48.831 9.9 269 9.9 101340 89
2002-03-20 09:50:17 51°12.587 2°48.828 10.1 272 9.9 101340 89
2002-03-20 09:50:23 51°12.588 2°48.824 11.6 272 9.9 101340 89
2002-03-20 09:50:27 51°12.588 2°48.821 11.6 273 9.9 101350 89
2002-03-20 09:50:32 51°12.588 2°48.818 9.7 276 9.9 101350 89
2002-03-20 09:50:37 51°12.589 2°48.815 10.1 277 9.9 101340 89
2002-03-20 09:50:42 51°12.59 2°48.812 10.2 279 9.9 101340 89
2002-03-20 09:50:47 51°12.59 2°48.809 10.8 281 9.9 101340 89
2002-03-20 09:50:52 51°12.591 2°48.806 10.6 277 9.9 101340 89
2002-03-20 09:50:57 51°12.592 2°48.803 10.7 282 9.9 101340 89
2002-03-20 09:51:02 51°12.592 2°48.8 9.7 284 9.9 101340 89
2002-03-20 09:51:07 51°12.593 2°48.797 11.1 283 9.9 101340 89
2002-03-20 09:51:13 51°12.594 2°48.793 9.9 286 9.9 101340 89
2002-03-20 09:51:17 51°12.595 2°48.791 9.3 287 9.9 101330 89
2002-03-20 09:51:21 51°12.595 2°48.788 10.9 286 9.9 101330 89
2002-03-20 09:51:28 51°12.597 2°48.785 11.5 289 9.9 101340 89
2002-03-20 09:51:32 51°12.598 2°48.782 11.1 291 9.9 101340 89
2002-03-20 09:51:37 51°12.599 2°48.779 11.9 295 9.9 101340 89
2002-03-20 09:51:42 51°12.6 2°48.777 11.4 290 9.9 101340 89
2002-03-20 09:51:47 51°12.601 2°48.774 10.5 295 9.9 101350 89
2002-03-20 09:51:52 51°12.603 2°48.771 10.3 293 9.9 101350 89
2002-03-20 09:51:57 51°12.604 2°48.768 10.4 296 9.9 101340 89
2002-03-20 09:52:02 51°12.605 2°48.765 10 294 9.9 101340 89
2002-03-20 09:52:07 51°12.607 2°48.763 10.9 297 9.9 101340 89
2002-03-20 09:52:12 51°12.608 2°48.76 10.3 294 9.9 101340 89
2002-03-20 09:52:17 51°12.609 2°48.757 10.3 297 9.9 101340 89
2002-03-20 09:52:23 51°12.611 2°48.754 10.3 293 9.9 101340 89
2002-03-20 09:52:27 51°12.612 2°48.752 9.7 298 9.9 101340 89
2002-03-20 09:52:32 51°12.614 2°48.75 8.5 299 9.9 101340 89
2002-03-20 09:52:37 51°12.615 2°48.747 11.2 301 9.9 101350 89
2002-03-20 09:52:42 51°12.617 2°48.745 10.6 296 9.9 101350 89
2002-03-20 09:52:47 51°12.619 2°48.743 7.1 315 9.9 101350 89
2002-03-20 09:52:52 51°12.62 2°48.74 8.1 310 9.9 101350 89
2002-03-20 09:52:57 51°12.622 2°48.738 7.2 303 9.9 101350 89
2002-03-20 09:53:02 51°12.623 2°48.736 8 313 9.9 101350 89
2002-03-20 09:53:07 51°12.625 2°48.734 5.5 330 9.9 101350 89
2002-03-20 09:53:12 51°12.626 2°48.732 5.5 296 9.9 101350 89
2002-03-20 09:53:17 51°12.628 2°48.731 6.4 335 9.9 101350 89
2002-03-20 09:53:22 51°12.63 2°48.729 7.1 295 9.9 101350 89
2002-03-20 09:53:27 51°12.632 2°48.727 4.8 302 9.9 101340 89
2002-03-20 09:53:33 51°12.634 2°48.725 5 331 9.9 101340 89
2002-03-20 09:53:37 51°12.635 2°48.724 4.6 309 9.9 101350 89
2002-03-20 09:53:43 51°12.637 2°48.722 3 319 9.9 101350 89
2002-03-20 09:53:47 51°12.639 2°48.721 4.5 316 9.9 101350 89
2002-03-20 09:53:52 51°12.641 2°48.72 4.4 309 9.9 101350 89
2002-03-20 09:53:57 51°12.642 2°48.719 3.5 327 9.9 101350 89
2002-03-20 09:54:02 51°12.644 2°48.718 2.4 322 9.9 101350 89
2002-03-20 09:54:07 51°12.646 2°48.717 2.1 319 9.9 101350 89
2002-03-20 09:54:12 51°12.648 2°48.716 1.8 329 9.9 101350 89
2002-03-20 09:54:17 51°12.65 2°48.715 1 59 9.8 101350 89
2002-03-20 09:54:22 51°12.651 2°48.715 2.3 328 9.8 101350 89
2002-03-20 09:54:27 51°12.653 2°48.714 2.1 331 9.8 101350 89
2002-03-20 09:54:32 51°12.655 2°48.714 2.4 329 9.8 101350 89
2002-03-20 09:54:37 51°12.657 2°48.714 2.5 345 9.8 101350 89
2002-03-20 09:54:43 51°12.659 2°48.713 2.3 340 9.8 101350 89
2002-03-20 09:54:47 51°12.66 2°48.713 0.7 338 9.8 101350 89
2002-03-20 09:54:52 51°12.663 2°48.714 6.4 337 9.8 101350 89
2002-03-20 09:54:58 51°12.665 2°48.714 7.2 346 9.8 101350 89
2002-03-20 09:55:03 51°12.667 2°48.715 6.3 348 9.8 101350 89
2002-03-20 09:55:07 51°12.668 2°48.715 5.9 9 9.8 101350 89
2002-03-20 09:55:12 51°12.67 2°48.716 7 1 9.8 101350 89
2002-03-20 09:55:17 51°12.672 2°48.717 5.9 353 9.8 101360 89
2002-03-20 09:55:23 51°12.674 2°48.717 7.7 343 9.8 101360 89
2002-03-20 09:55:27 51°12.675 2°48.719 8.8 354 9.8 101360 89
2002-03-20 09:55:33 51°12.677 2°48.719 7.2 2 9.8 101360 89
2002-03-20 09:55:37 51°12.678 2°48.72 7.4 4 9.8 101350 89
2002-03-20 09:55:43 51°12.681 2°48.721 6.6 6 9.8 101350 89
2002-03-20 09:55:48 51°12.682 2°48.722 7.2 10 9.8 101350 89
2002-03-20 09:55:52 51°12.684 2°48.723 7.9 13 9.8 101350 89
2002-03-20 09:55:57 51°12.685 2°48.725 8.8 1 9.8 101350 89
2002-03-20 09:56:03 51°12.687 2°48.726 7.8 13 9.8 101350 89
2002-03-20 09:56:08 51°12.688 2°48.728 8.1 11 9.8 101360 89
2002-03-20 09:56:12 51°12.69 2°48.729 8.4 23 9.8 101360 89
2002-03-20 09:56:17 51°12.691 2°48.731 8.1 10 9.8 101350 89
2002-03-20 09:56:23 51°12.693 2°48.733 8.5 22 9.8 101350 89
2002-03-20 09:56:27 51°12.694 2°48.734 9.7 20 9.8 101350 89
2002-03-20 09:56:33 51°12.695 2°48.737 8 21 9.8 101350 89
2002-03-20 09:56:37 51°12.696 2°48.738 7.6 19 9.8 101350 89
2002-03-20 09:56:42 51°12.698 2°48.74 7.3 24 9.8 101350 89
2002-03-20 09:56:47 51°12.699 2°48.743 7.6 32 9.8 101350 89
2002-03-20 09:56:52 51°12.7 2°48.745 7.2 33 9.8 101350 89
2002-03-20 09:56:57 51°12.701 2°48.747 7.8 36 9.8 101350 89
2002-03-20 09:57:03 51°12.702 2°48.75 7 32 9.8 101350 89
2002-03-20 09:57:07 51°12.702 2°48.753 6.6 31 9.8 101360 89
2002-03-20 09:57:12 51°12.703 2°48.755 8.2 34 9.8 101360 89
2002-03-20 09:57:17 51°12.704 2°48.758 8.5 36 9.8 101360 89
2002-03-20 09:57:22 51°12.704 2°48.761 8 37 9.8 101360 89
2002-03-20 09:57:27 51°12.705 2°48.764 9.2 35 9.8 101360 89
2002-03-20 09:57:32 51°12.706 2°48.767 8 37 9.8 101360 89
2002-03-20 09:57:37 51°12.707 2°48.77 8.3 33 9.8 101360 89
2002-03-20 09:57:43 51°12.708 2°48.773 8.4 40 9.8 101360 89
2002-03-20 09:57:47 51°12.708 2°48.776 7.8 37 9.8 101360 89
2002-03-20 09:57:52 51°12.709 2°48.779 7.2 33 9.8 101360 89
2002-03-20 09:57:57 51°12.71 2°48.782 6.8 26 9.8 101370 89
2002-03-20 09:58:03 51°12.711 2°48.785 7 36 9.8 101370 89
2002-03-20 09:58:07 51°12.711 2°48.788 7.6 38 9.8 101370 89
2002-03-20 09:58:13 51°12.712 2°48.791 6.9 39 9.8 101370 89
2002-03-20 09:58:17 51°12.713 2°48.793 7.7 29 9.8 101360 89
2002-03-20 09:58:23 51°12.714 2°48.797 8.6 28 9.8 101360 89
2002-03-20 09:58:27 51°12.715 2°48.799 7.5 33 9.8 101370 89
2002-03-20 09:58:32 51°12.715 2°48.802 8.1 31 9.8 101370 89
2002-03-20 09:58:37 51°12.716 2°48.804 7.6 28 9.8 101370 89
2002-03-20 09:58:43 51°12.717 2°48.808 8.7 30 9.8 101370 89
2002-03-20 09:58:47 51°12.718 2°48.81 7 30 9.8 101370 89
2002-03-20 09:58:52 51°12.719 2°48.812 7.2 26 9.8 101370 89
2002-03-20 09:58:57 51°12.72 2°48.815 8.5 30 9.8 101370 89
2002-03-20 09:59:03 51°12.721 2°48.818 7.7 32 9.8 101370 89
2002-03-20 09:59:07 51°12.721 2°48.82 8.2 34 9.8 101380 89
2002-03-20 09:59:12 51°12.722 2°48.822 7.8 29 9.8 101380 89
2002-03-20 09:59:17 51°12.723 2°48.825 9 28 9.8 101380 89
2002-03-20 09:59:22 51°12.724 2°48.827 8.9 34 9.8 101380 89
2002-03-20 09:59:27 51°12.724 2°48.829 8.7 30 9.8 101380 89
2002-03-20 09:59:33 51°12.725 2°48.832 9.3 23 9.8 101380 89
2002-03-20 09:59:37 51°12.725 2°48.834 7.9 25 9.8 101380 89
2002-03-20 09:59:43 51°12.726 2°48.837 8.3 22 9.8 101380 89
2002-03-20 09:59:47 51°12.727 2°48.838 8.5 30 9.8 101380 89
2002-03-20 09:59:52 51°12.728 2°48.84 8.2 33 9.8 101380 89
2002-03-20 09:59:57 51°12.728 2°48.842 8.4 31 9.8 101380 89
2002-03-20 10:00:03 51°12.729 2°48.845 7.8 33 9.8 101380 89
2002-03-20 10:00:07 51°12.729 2°48.846 8.3 34 9.8 101380 89
2002-03-20 10:00:11 51°12.73 2°48.848 6.9 34 9.8 101380 89
2002-03-20 10:00:17 51°12.731 2°48.851 7.7 35 9.8 101380 89
2002-03-20 10:00:23 51°12.731 2°48.853 7.2 36 9.8 101380 89
2002-03-20 10:00:27 51°12.732 2°48.855 6.7 38 9.8 101380 89
2002-03-20 10:00:32 51°12.732 2°48.857 7.1 38 9.8 101380 89
2002-03-20 10:00:37 51°12.732 2°48.858 8.2 34 9.8 101380 89
2002-03-20 10:00:43 51°12.733 2°48.861 7.1 28 9.8 101380 89
2002-03-20 10:00:47 51°12.733 2°48.862 7.1 39 9.7 101390 89
2002-03-20 10:00:53 51°12.734 2°48.865 8.1 38 9.7 101390 89
2002-03-20 10:00:57 51°12.734 2°48.866 7.2 37 9.8 101380 89
2002-03-20 10:01:03 51°12.734 2°48.869 7.7 35 9.8 101380 89
2002-03-20 10:01:07 51°12.735 2°48.87 7.3 44 9.7 101380 89
2002-03-20 10:01:13 51°12.735 2°48.872 7.8 41 9.7 101380 89
2002-03-20 10:01:17 51°12.735 2°48.874 7.2 44 9.8 101380 89
2002-03-20 10:01:23 51°12.736 2°48.876 7.3 43 9.8 101380 89
2002-03-20 10:01:27 51°12.736 2°48.878 7.9 40 9.8 101380 90
2002-03-20 10:01:32 51°12.736 2°48.88 6.8 44 9.8 101380 90
2002-03-20 10:01:37 51°12.736 2°48.882 7.8 43 9.8 101390 90
2002-03-20 10:01:43 51°12.736 2°48.884 6.6 43 9.8 101390 90
2002-03-20 10:01:47 51°12.736 2°48.886 8 39 9.8 101390 90
2002-03-20 10:01:53 51°12.737 2°48.888 7.2 132 9.8 101390 90
2002-03-20 10:01:57 51°12.737 2°48.89 7.2 39 9.8 101390 90
2002-03-20 10:02:03 51°12.737 2°48.892 7.4 319 9.8 101390 90
2002-03-20 10:02:07 51°12.737 2°48.893 7.6 36 9.8 101390 90
2002-03-20 10:02:13 51°12.737 2°48.895 7.3 38 9.8 101390 90
2002-03-20 10:02:18 51°12.737 2°48.897 7 34 9.8 101390 90
2002-03-20 10:02:22 51°12.738 2°48.898 7.7 40 9.8 101390 90
2002-03-20 10:02:28 51°12.738 2°48.901 8.9 31 9.8 101390 90
2002-03-20 10:02:33 51°12.738 2°48.902 7.9 37 9.8 101390 90
2002-03-20 10:02:37 51°12.738 2°48.904 7.4 30 9.8 101390 90
2002-03-20 10:02:42 51°12.739 2°48.905 7.6 35 9.8 101390 90
2002-03-20 10:02:47 51°12.739 2°48.907 8.1 33 9.8 101380 90
2002-03-20 10:02:52 51°12.74 2°48.909 7.7 25 9.8 101380 90
2002-03-20 10:02:57 51°12.74 2°48.91 8.2 34 9.8 101380 90
2002-03-20 10:03:02 51°12.741 2°48.912 8.9 31 9.8 101380 90
2002-03-20 10:03:07 51°12.741 2°48.913 8.3 37 9.7 101390 90
2002-03-20 10:03:12 51°12.741 2°48.914 8.7 30 9.7 101390 90
2002-03-20 10:03:17 51°12.742 2°48.916 8.4 27 9.8 101380 90
2002-03-20 10:03:23 51°12.742 2°48.918 7.2 31 9.8 101380 90
2002-03-20 10:03:27 51°12.742 2°48.919 8 33 9.7 101390 90
2002-03-20 10:03:33 51°12.743 2°48.921 7.7 26 9.7 101390 90
2002-03-20 10:03:37 51°12.743 2°48.922 9 33 9.7 101390 90
2002-03-20 10:03:42 51°12.743 2°48.924 8.9 38 9.7 101390 90
2002-03-20 10:03:47 51°12.744 2°48.925 8.9 32 9.7 101390 90
2002-03-20 10:03:52 51°12.744 2°48.927 8.7 33 9.7 101390 90
2002-03-20 10:03:57 51°12.744 2°48.928 9.2 37 9.7 101380 90
2002-03-20 10:04:02 51°12.745 2°48.93 8.3 35 9.7 101380 90
2002-03-20 10:04:07 51°12.745 2°48.931 7.9 31 9.8 101390 90
2002-03-20 10:04:12 51°12.746 2°48.933 8.3 36 9.8 101390 90
2002-03-20 10:04:17 51°12.746 2°48.934 7.6 35 9.8 101380 90
2002-03-20 10:04:22 51°12.746 2°48.936 7.2 29 9.8 101380 90
2002-03-20 10:04:27 51°12.746 2°48.937 9 28 9.8 101390 90
2002-03-20 10:04:32 51°12.747 2°48.938 6.9 33 9.8 101390 90
2002-03-20 10:04:37 51°12.747 2°48.94 8.4 32 9.7 101390 90
2002-03-20 10:04:43 51°12.748 2°48.942 8.5 34 9.7 101390 90
2002-03-20 10:04:48 51°12.748 2°48.943 7 37 9.7 101390 90
2002-03-20 10:04:52 51°12.748 2°48.945 7.6 37 9.7 101390 90
2002-03-20 10:04:57 51°12.748 2°48.946 7.6 33 9.7 101390 90
2002-03-20 10:05:03 51°12.749 2°48.948 8 30 9.7 101390 90
2002-03-20 10:05:07 51°12.749 2°48.949 8.2 36 9.7 101390 90
2002-03-20 10:05:13 51°12.749 2°48.951 8.3 29 9.7 101390 90
2002-03-20 10:05:17 51°12.75 2°48.952 8.2 40 9.7 101380 90
2002-03-20 10:05:23 51°12.75 2°48.954 8.3 41 9.7 101380 90
2002-03-20 10:05:27 51°12.75 2°48.955 8.2 35 9.7 101380 90
2002-03-20 10:05:33 51°12.751 2°48.957 7.9 37 9.7 101380 90
2002-03-20 10:05:37 51°12.751 2°48.958 6.4 324 9.7 101390 90
2002-03-20 10:05:42 51°12.751 2°48.96 7.5 44 9.7 101390 90
2002-03-20 10:05:47 51°12.752 2°48.962 7.3 130 9.7 101390 90
2002-03-20 10:05:53 51°12.752 2°48.964 8.6 44 9.7 101390 90
2002-03-20 10:05:57 51°12.752 2°48.965 7.6 319 9.7 101390 90
2002-03-20 10:06:01 51°12.752 2°48.967 6.1 44 9.7 101390 90
2002-03-20 10:06:07 51°12.753 2°48.969 7.2 132 9.7 101380 90
2002-03-20 10:06:13 51°12.753 2°48.971 7.3 42 9.7 101380 90
2002-03-20 10:06:17 51°12.753 2°48.973 6.1 44 9.8 101390 90
2002-03-20 10:06:21 51°12.754 2°48.975 6.2 317 9.8 101390 90
2002-03-20 10:06:27 51°12.754 2°48.977 5.8 126 9.8 101380 90
2002-03-20 10:06:33 51°12.755 2°48.98 6.3 33 9.8 101380 90
2002-03-20 10:06:38 51°12.755 2°48.982 6.7 47 9.8 101380 90
2002-03-20 10:06:43 51°12.755 2°48.984 6.9 43 9.8 101380 90
2002-03-20 10:06:47 51°12.755 2°48.986 6.2 50 9.8 101380 90
2002-03-20 10:06:52 51°12.756 2°48.988 6.7 45 9.8 101380 90
2002-03-20 10:06:57 51°12.756 2°48.991 7.2 44 9.9 101380 90
2002-03-20 10:07:03 51°12.756 2°48.994 7.4 44 9.9 101380 90
2002-03-20 10:07:08 51°12.757 2°48.996 6.8 47 9.9 101380 90
2002-03-20 10:07:12 51°12.757 2°48.998 6.8 46 9.9 101380 90
2002-03-20 10:07:17 51°12.757 2°49.001 7.1 131 10 101380 90
2002-03-20 10:07:23 51°12.758 2°49.004 7.1 50 10 101380 90
2002-03-20 10:07:28 51°12.758 2°49.006 6.3 45 10 101380 90
2002-03-20 10:07:32 51°12.759 2°49.008 6.5 49 10 101380 90
2002-03-20 10:07:37 51°12.759 2°49.011 7.1 42 10 101370 90
2002-03-20 10:07:43 51°12.759 2°49.014 6.9 50 10 101370 90
2002-03-20 10:07:47 51°12.76 2°49.016 6.7 324 10.1 101380 91
2002-03-20 10:07:53 51°12.76 2°49.019 7.6 43 10.1 101380 91
2002-03-20 10:07:57 51°12.76 2°49.021 6.9 323 10.1 101380 91
2002-03-20 10:08:03 51°12.761 2°49.025 6 46 10.1 101380 91
2002-03-20 10:08:07 51°12.761 2°49.027 6.7 130 10.2 101380 91
2002-03-20 10:08:12 51°12.762 2°49.029 6.4 130 10.2 101380 91
2002-03-20 10:08:17 51°12.762 2°49.032 7.4 38 10.2 101380 90
2002-03-20 10:08:23 51°12.763 2°49.036 7.1 321 10.2 101380 90
2002-03-20 10:08:27 51°12.763 2°49.038 6.9 47 10.2 101370 90
2002-03-20 10:08:32 51°12.764 2°49.041 7.7 47 10.2 101370 90
2002-03-20 10:08:37 51°12.764 2°49.044 7.6 47 10.3 101370 90
2002-03-20 10:08:43 51°12.764 2°49.047 7.4 50 10.3 101370 90
2002-03-20 10:08:47 51°12.765 2°49.049 7.3 49 10.3 101380 90
2002-03-20 10:08:53 51°12.765 2°49.053 8.1 53 10.3 101380 90
2002-03-20 10:08:57 51°12.765 2°49.055 7.4 58 10.3 101380 90
2002-03-20 10:09:03 51°12.765 2°49.059 7.7 59 10.3 101380 90
2002-03-20 10:09:07 51°12.764 2°49.061 7.5 69 10.3 101370 90
2002-03-20 10:09:12 51°12.764 2°49.064 7.6 71 10.3 101370 90
2002-03-20 10:09:17 51°12.763 2°49.067 7.3 72 10.3 101380 89
2002-03-20 10:09:22 51°12.763 2°49.07 7.4 70 10.3 101380 89
2002-03-20 10:09:28 51°12.762 2°49.074 7 75 10.2 101380 89
2002-03-20 10:09:32 51°12.761 2°49.076 7.1 75 10.2 101380 89
2002-03-20 10:09:37 51°12.76 2°49.079 6.7 76 10.2 101380 89
2002-03-20 10:09:41 51°12.76 2°49.081 7.5 74 10.2 101380 89
2002-03-20 10:09:47 51°12.759 2°49.085 7.5 73 10.2 101380 89
2002-03-20 10:09:53 51°12.758 2°49.088 7.5 77 10.2 101380 89
2002-03-20 10:09:57 51°12.758 2°49.09 8.3 75 10.2 101380 89
2002-03-20 10:10:03 51°12.757 2°49.094 8 72 10.2 101380 89
2002-03-20 10:10:08 51°12.756 2°49.097 8 72 10.2 101380 89
2002-03-20 10:10:12 51°12.756 2°49.099 7.8 69 10.2 101380 89
2002-03-20 10:10:17 51°12.756 2°49.102 7.7 68 10.1 101380 89
2002-03-20 10:10:22 51°12.755 2°49.104 7.5 67 10.1 101380 89
2002-03-20 10:10:27 51°12.755 2°49.107 7.9 70 10.1 101380 88
2002-03-20 10:10:33 51°12.755 2°49.11 8.8 69 10.1 101380 88
2002-03-20 10:10:37 51°12.754 2°49.113 7.3 59 10.1 101380 88
2002-03-20 10:10:42 51°12.754 2°49.115 7.2 63 10.1 101380 88
2002-03-20 10:10:47 51°12.754 2°49.118 7.9 56 10.1 101380 88
2002-03-20 10:10:53 51°12.754 2°49.121 7.6 53 10.1 101380 88
2002-03-20 10:10:58 51°12.754 2°49.123 8 50 10.1 101380 88
2002-03-20 10:11:03 51°12.754 2°49.126 8 52 10.1 101380 88
2002-03-20 10:11:07 51°12.755 2°49.128 6.2 51 10 101380 88
2002-03-20 10:11:12 51°12.754 2°49.13 7.6 47 10 101380 88
2002-03-20 10:11:17 51°12.755 2°49.133 7.1 48 10 101380 89
2002-03-20 10:11:23 51°12.755 2°49.136 6.6 129 10 101380 89
2002-03-20 10:11:27 51°12.755 2°49.138 6.4 51 10.1 101380 89
2002-03-20 10:11:32 51°12.755 2°49.141 7.1 53 10.1 101380 89
2002-03-20 10:11:37 51°12.755 2°49.143 7.3 52 10.1 101380 89
2002-03-20 10:11:43 51°12.755 2°49.147 5.5 45 10.1 101380 89
2002-03-20 10:11:47 51°12.755 2°49.149 7.5 129 10.1 101390 89
2002-03-20 10:11:53 51°12.756 2°49.152 7.8 47 10.1 101390 89
2002-03-20 10:11:57 51°12.756 2°49.154 6.7 320 10.2 101390 89
2002-03-20 10:12:03 51°12.756 2°49.158 7.9 131 10.2 101390 89
2002-03-20 10:12:07 51°12.756 2°49.16 6.8 51 10.2 101390 89
2002-03-20 10:12:13 51°12.756 2°49.163 7 46 10.2 101390 89
2002-03-20 10:12:18 51°12.756 2°49.166 7.6 47 10.2 101390 89
2002-03-20 10:12:23 51°12.756 2°49.169 4.4 320 10.2 101390 89
2002-03-20 10:12:27 51°12.757 2°49.171 7.1 45 10.2 101390 89
2002-03-20 10:12:32 51°12.757 2°49.174 7.2 44 10.2 101390 89
2002-03-20 10:12:37 51°12.757 2°49.176 6.5 129 10.3 101380 89
2002-03-20 10:12:43 51°12.758 2°49.18 7.6 46 10.3 101380 89
2002-03-20 10:12:47 51°12.758 2°49.182 6.6 48 10.3 101390 89
2002-03-20 10:12:53 51°12.758 2°49.186 6.7 46 10.3 101390 89
2002-03-20 10:12:57 51°12.758 2°49.188 6.9 319 10.3 101390 89
2002-03-20 10:13:02 51°12.759 2°49.191 7.1 319 10.3 101390 89
2002-03-20 10:13:07 51°12.759 2°49.194 6.7 134 10.3 101390 89
2002-03-20 10:13:12 51°12.76 2°49.196 5.9 44 10.3 101390 89
2002-03-20 10:13:17 51°12.76 2°49.199 5.1 42 10.3 101390 89
2002-03-20 10:13:23 51°12.761 2°49.203 6 41 10.3 101390 89
2002-03-20 10:13:27 51°12.761 2°49.205 6.6 38 10.3 101380 89
2002-03-20 10:13:33 51°12.761 2°49.208 6.7 41 10.3 101380 89
2002-03-20 10:13:37 51°12.761 2°49.211 5.2 127 10.4 101390 89
2002-03-20 10:13:42 51°12.762 2°49.214 6.2 41 10.4 101390 89
2002-03-20 10:13:48 51°12.763 2°49.217 5.7 53 10.4 101390 89
2002-03-20 10:13:52 51°12.763 2°49.219 5.4 44 10.4 101390 89
2002-03-20 10:13:57 51°12.763 2°49.222 7.4 39 10.4 101390 89
2002-03-20 10:14:03 51°12.764 2°49.225 5.7 318 10.4 101390 89
2002-03-20 10:14:07 51°12.765 2°49.227 5.6 130 10.4 101390 88
2002-03-20 10:14:13 51°12.765 2°49.23 6.1 41 10.4 101390 88
2002-03-20 10:14:17 51°12.766 2°49.233 7.6 44 10.3 101390 88
2002-03-20 10:14:23 51°12.766 2°49.236 7.8 43 10.3 101390 88
2002-03-20 10:14:27 51°12.767 2°49.238 7.3 38 10.3 101380 88
2002-03-20 10:14:33 51°12.767 2°49.241 6.9 37 10.3 101380 88
2002-03-20 10:14:37 51°12.768 2°49.243 6.9 37 10.3 101380 88
2002-03-20 10:14:42 51°12.768 2°49.246 7.4 42 10.3 101380 88
2002-03-20 10:14:47 51°12.769 2°49.248 6.2 321 10.3 101380 88
2002-03-20 10:14:53 51°12.77 2°49.251 8 33 10.3 101380 88
2002-03-20 10:14:57 51°12.77 2°49.254 7.9 318 10.3 101390 88
2002-03-20 10:15:03 51°12.771 2°49.257 6.8 40 10.3 101390 88
2002-03-20 10:15:07 51°12.771 2°49.259 7.5 39 10.2 101380 88
2002-03-20 10:15:13 51°12.772 2°49.262 8 40 10.2 101380 88
2002-03-20 10:15:17 51°12.773 2°49.264 6.9 38 10.2 101390 88
2002-03-20 10:15:23 51°12.774 2°49.267 7.1 34 10.2 101390 88
2002-03-20 10:15:27 51°12.774 2°49.269 7.6 35 10.2 101390 88
2002-03-20 10:15:32 51°12.775 2°49.272 8.8 32 10.2 101390 88
2002-03-20 10:15:37 51°12.776 2°49.274 6.8 33 10.2 101390 88
2002-03-20 10:15:43 51°12.777 2°49.277 7.5 40 10.2 101390 88
2002-03-20 10:15:48 51°12.778 2°49.28 6.2 32 10.1 101390 88
2002-03-20 10:15:52 51°12.778 2°49.282 7.1 36 10.1 101390 88
2002-03-20 10:15:57 51°12.779 2°49.284 8 37 10.1 101390 88
2002-03-20 10:16:03 51°12.78 2°49.287 8.3 28 10.1 101390 88
2002-03-20 10:16:08 51°12.781 2°49.29 7.1 35 10.1 101390 88
2002-03-20 10:16:12 51°12.781 2°49.292 8.2 29 10.1 101390 88
2002-03-20 10:16:16 51°12.782 2°49.294 8.4 29 10.1 101390 88
2002-03-20 10:16:23 51°12.783 2°49.297 8 26 10.1 101390 88
2002-03-20 10:16:27 51°12.784 2°49.299 7.6 27 10.1 101390 88
2002-03-20 10:16:32 51°12.785 2°49.302 7.9 32 10.1 101390 88
2002-03-20 10:16:37 51°12.785 2°49.304 7.9 27 10.1 101390 88
2002-03-20 10:16:41 51°12.786 2°49.306 7.4 26 10.1 101390 88
2002-03-20 10:16:47 51°12.787 2°49.309 6.8 23 10.1 101390 88
2002-03-20 10:16:52 51°12.788 2°49.312 6.6 28 10.1 101390 88
2002-03-20 10:16:57 51°12.789 2°49.314 8.5 27 10.1 101390 88
2002-03-20 10:17:03 51°12.79 2°49.317 8.8 24 10.1 101390 88
2002-03-20 10:17:07 51°12.791 2°49.319 8.8 27 10 101390 88
2002-03-20 10:17:12 51°12.791 2°49.322 7.9 29 10 101390 88
2002-03-20 10:17:17 51°12.792 2°49.324 8.8 26 10 101390 88
2002-03-20 10:17:22 51°12.793 2°49.327 8.9 23 10 101390 88
2002-03-20 10:17:27 51°12.794 2°49.329 8.1 28 10 101390 88
2002-03-20 10:17:32 51°12.795 2°49.332 9.3 28 10 101390 88
2002-03-20 10:17:37 51°12.796 2°49.334 7.9 26 10 101390 88
2002-03-20 10:17:43 51°12.797 2°49.337 8.5 25 10 101390 88
2002-03-20 10:17:48 51°12.797 2°49.34 7.9 34 10 101390 88
2002-03-20 10:17:53 51°12.798 2°49.343 8.4 29 10 101390 88
2002-03-20 10:17:57 51°12.799 2°49.345 7.9 32 10 101390 88
2002-03-20 10:18:03 51°12.8 2°49.348 7.6 29 10 101390 88
2002-03-20 10:18:07 51°12.8 2°49.35 8.3 30 10 101390 88
2002-03-20 10:18:12 51°12.801 2°49.353 7.5 35 10 101390 88
2002-03-20 10:18:17 51°12.802 2°49.356 7.8 27 10 101390 88
2002-03-20 10:18:23 51°12.803 2°49.359 6.5 27 10 101390 88
2002-03-20 10:18:27 51°12.804 2°49.361 7.3 30 10 101390 88
2002-03-20 10:18:33 51°12.804 2°49.364 6.9 31 10 101390 88
2002-03-20 10:18:37 51°12.805 2°49.366 7.5 29 10 101400 88
2002-03-20 10:18:43 51°12.806 2°49.369 7.8 27 10 101400 88
2002-03-20 10:18:47 51°12.806 2°49.372 7.4 32 10 101390 88
2002-03-20 10:18:53 51°12.807 2°49.375 7.2 36 10 101390 88
2002-03-20 10:18:57 51°12.807 2°49.377 8.3 43 10 101400 88
2002-03-20 10:19:03 51°12.808 2°49.381 7.3 133 10 101400 88
2002-03-20 10:19:07 51°12.809 2°49.383 6.9 132 9.9 101400 88
2002-03-20 10:19:13 51°12.809 2°49.386 7.6 47 9.9 101400 88
2002-03-20 10:19:17 51°12.809 2°49.389 6 47 10 101400 88
2002-03-20 10:19:22 51°12.809 2°49.392 6.6 46 10 101400 88
2002-03-20 10:19:27 51°12.81 2°49.394 6.8 134 10 101390 88
2002-03-20 10:19:32 51°12.809 2°49.398 6.9 43 10 101390 88
2002-03-20 10:19:37 51°12.81 2°49.4 8 52 10 101390 88
2002-03-20 10:19:43 51°12.809 2°49.404 7 49 10 101390 88
2002-03-20 10:19:47 51°12.809 2°49.407 7.2 51 10 101400 89
2002-03-20 10:19:52 51°12.809 2°49.41 7.6 52 10 101400 89
2002-03-20 10:19:57 51°12.809 2°49.413 7.1 54 10.1 101400 89
2002-03-20 10:20:03 51°12.809 2°49.416 7.8 56 10.1 101400 89
2002-03-20 10:20:07 51°12.808 2°49.419 7.6 59 10.1 101400 89
2002-03-20 10:20:13 51°12.808 2°49.422 7.9 60 10.1 101400 89
2002-03-20 10:20:17 51°12.807 2°49.425 7.5 62 10.1 101400 89
2002-03-20 10:20:22 51°12.807 2°49.428 7.2 68 10.1 101400 89
2002-03-20 10:20:27 51°12.806 2°49.431 8.2 61 10.1 101400 89
2002-03-20 10:20:33 51°12.806 2°49.434 7 67 10.1 101400 89
2002-03-20 10:20:37 51°12.805 2°49.436 7.9 76 10.1 101400 89
2002-03-20 10:20:42 51°12.804 2°49.439 7.9 74 10.1 101400 89
2002-03-20 10:20:47 51°12.803 2°49.442 7.7 72 10.1 101400 88
2002-03-20 10:20:53 51°12.802 2°49.445 6.9 76 10.1 101400 88
2002-03-20 10:20:57 51°12.802 2°49.448 6.8 77 10.1 101400 88
2002-03-20 10:21:03 51°12.801 2°49.451 8.2 77 10.1 101400 88
2002-03-20 10:21:07 51°12.799 2°49.453 7.7 79 10.1 101410 88
2002-03-20 10:21:12 51°12.799 2°49.456 6.9 82 10.1 101410 88
2002-03-20 10:21:16 51°12.798 2°49.458 7.3 81 10.1 101400 88
2002-03-20 10:21:23 51°12.796 2°49.461 6.5 82 10.1 101400 88
2002-03-20 10:21:27 51°12.795 2°49.463 7.3 85 10 101400 88
2002-03-20 10:21:33 51°12.794 2°49.466 7.9 78 10 101400 88
2002-03-20 10:21:37 51°12.793 2°49.468 6.4 86 10 101410 88
2002-03-20 10:21:43 51°12.791 2°49.471 5.7 87 10 101410 88
2002-03-20 10:21:48 51°12.79 2°49.473 5.9 82 10 101400 88
2002-03-20 10:21:53 51°12.789 2°49.475 6.7 87 10 101400 88
2002-03-20 10:21:57 51°12.788 2°49.477 7 90 10 101410 88
2002-03-20 10:22:03 51°12.786 2°49.48 6.8 92 10 101410 88
2002-03-20 10:22:07 51°12.785 2°49.482 7 97 10 101400 88
2002-03-20 10:22:13 51°12.783 2°49.484 7.5 90 10 101400 88
2002-03-20 10:22:17 51°12.782 2°49.485 7.2 93 10 101400 88
2002-03-20 10:22:23 51°12.78 2°49.488 8.4 97 10 101400 88
2002-03-20 10:22:27 51°12.779 2°49.489 7.6 89 10 101410 88
2002-03-20 10:22:33 51°12.778 2°49.491 7.4 95 10 101410 88
2002-03-20 10:22:37 51°12.777 2°49.493 8 96 10 101410 88
2002-03-20 10:22:43 51°12.775 2°49.495 7 100 10 101410 88
2002-03-20 10:22:47 51°12.774 2°49.496 6.3 101 10 101410 88
2002-03-20 10:22:52 51°12.772 2°49.498 6.4 101 10 101410 88
2002-03-20 10:22:57 51°12.771 2°49.5 6.7 104 10 101410 88
2002-03-20 10:23:02 51°12.769 2°49.501 7.9 101 10 101410 88
2002-03-20 10:23:07 51°12.768 2°49.503 6.9 101 10 101400 88
2002-03-20 10:23:12 51°12.766 2°49.504 6.6 104 10 101400 88
2002-03-20 10:23:17 51°12.764 2°49.505 7.7 103 10 101410 88